Shawano, WI (54166)

6:04 AM CDT on June 27, 2017 (GMT -0500)
Willow Wood | | Change Station
Active Advisory: Flood Warning

Elev 810 ft 44.79 °N, 88.58 °W | Updated 16 minutes ago

Clear
Clear
49.6 °F
Feels Like 50 °F
N
0.0
Wind Variable Wind from North
Gusts 1.2 mph

Today
High -- | Low -- °F
--% Chance of Precip.
Yesterday
High -- | Low -- °F
Precip. -- in
Pressure 30.05 in
Visibility 10.0 miles
Clouds Clear
Windchill 50 °F
Dew Point 45 °F
Humidity 85%
Rainfall 0.00 in
Snow Depth Not available.
5:10 AM 8:44 PM
Waxing Crescent, 15% visible
METAR KEZS 271055Z AUTO 26004KT 10SM CLR 11/09 A3005 RMK AO2 T01050085
Pressure 30.05 in
Visibility 10.0 miles
Clouds Clear
Windchill 50 °F
Dew Point 45 °F
Humidity 85%
Rainfall 0.00 in
Snow Depth Not available.
5:10 AM 8:44 PM
Waxing Crescent, 15% visible
METAR KEZS 271055Z AUTO 26004KT 10SM CLR 11/09 A3005 RMK AO2 T01050085

Get Your Daily Forecast Email!

Thanks for signing up!

Be on the lookout for a verification email in your inbox.

You'll start receiving severe weather alerts in your inbox..

×

10-Day Weather Forecast

Almanac

Astronomy

Jun. 27, 2017 Rise Set
Actual Time
Civil Twilight
Nautical Twilight
Astronomical Twilight
Moon
Length of Visible Light
Length of Day
Tomorrow will be .
, % of the Moon is Illuminated

Today's Extremes

State Highs State Lows

Community

WunderPhotos

Category 6

Welcome to Category 6. This is the collective home for Weather Underground's featured writeups by Dr. Jeff Masters (right), Bob Henson (left), Chris Burt, and other regular contributors.

Nearby

Air Quality

  Air Quality AQ Index Pollutant
Not available.

Snow Depth

Station Depth Elevation

Earthquake Activity

City Distance Mag. Time & Date
Minimum magnitude displayed is 2.5.

Coastal Water Temperatures

Place Temperature

Stations

Nearby Weather Stations

Station Location Temp. Windchill Dew Point Humidity Wind Precip. Elev Updated Type
                   

Watches & Warnings

Flood Warning
Issued: 8:58 PM CDT Jun. 26, 2017 – National Weather Service

The Flood Warning continues for
the Wolf River near Shiocton.
* At 9:20 am Monday the stage was 12.1 feet.
* Flood stage is 12.0 feet.
* Minor flooding is occurring.
* Forecast... the river will continue to fall to below flood stage by
early Tuesday.
* Impacts at 12.0 feet. Flooding is confined to lowland and
agricultural land. The entire boat Landing in Shiocton is under
several feet of floodwaters. Water is surrounding lowland areas
around homes on Mill Street and island street .


Lat... Lon 4468 8852 4433 8848 4434 8867 4440 8867
      4450 8863 4468 8867